OCN8F LEPA-EDDF
Flight info
| Callsign | OCN8F |
|---|---|
| Flight time | 1h 49m |
| Altitude | 36000 |
| Route | MEROS DCT LAPIT DCT CHELY DCT LUMAS DCT MAXIR DCT LUSOL DCT BODRU DCT OKTET DCT IRMAR DCT KINES DCT VANAS DCT ESOKO DCT GODRA DCT LADOL T163 EMPAX EMPAX5B |
| Aircraft | A320/M-SDE2E3FGIJ1LORWXYZ/HB1 |
Departure
| Time | 2026-05-06 09:24 |
|---|---|
| Airport | Palma de Mallorca Airport (LEPA) |
Arrival
| Time | 2026-05-06 11:13 |
|---|---|
| Airport | Frankfurt Main Airport (EDDF) |
| Time | Latitude | Longitude | Altitude | Speed | Heading |
|---|---|---|---|---|---|
| 2026-05-06 08:34 | 39.54794 | 2.73335 | 39 ft | 0 kts | 265° |
| 2026-05-06 09:14 | 39.54794 | 2.73343 | 38 ft | 4 kts | 265° |
| 2026-05-06 09:14 | 39.54795 | 2.73377 | 36 ft | 4 kts | 277° |
| 2026-05-06 09:14 | 39.54789 | 2.73405 | 36 ft | 2 kts | 297° |
| 2026-05-06 09:15 | 39.54775 | 2.73433 | 37 ft | 4 kts | 319° |
| 2026-05-06 09:15 | 39.54753 | 2.73453 | 36 ft | 4 kts | 329° |
| 2026-05-06 09:15 | 39.54734 | 2.73467 | 36 ft | 4 kts | 328° |
| 2026-05-06 09:15 | 39.54711 | 2.73486 | 35 ft | 4 kts | 328° |
| 2026-05-06 09:16 | 39.54688 | 2.73504 | 36 ft | 4 kts | 328° |
| 2026-05-06 09:16 | 39.54679 | 2.73511 | 33 ft | 0 kts | 328° |
| 2026-05-06 09:18 | 39.54700 | 2.73495 | 37 ft | 8 kts | 328° |
| 2026-05-06 09:18 | 39.54745 | 2.73464 | 38 ft | 9 kts | 347° |
| 2026-05-06 09:18 | 39.54773 | 2.73528 | 38 ft | 12 kts | 123° |
| 2026-05-06 09:18 | 39.54689 | 2.73595 | 37 ft | 15 kts | 149° |
| 2026-05-06 09:19 | 39.54593 | 2.73658 | 38 ft | 18 kts | 121° |
| 2026-05-06 09:19 | 39.54637 | 2.73811 | 38 ft | 20 kts | 58° |
| 2026-05-06 09:19 | 39.54714 | 2.73969 | 38 ft | 21 kts | 59° |
| 2026-05-06 09:19 | 39.54805 | 2.74119 | 38 ft | 21 kts | 19° |
| 2026-05-06 09:20 | 39.54937 | 2.74041 | 38 ft | 22 kts | 328° |
| 2026-05-06 09:20 | 39.55073 | 2.73932 | 38 ft | 24 kts | 329° |
| 2026-05-06 09:20 | 39.55216 | 2.73819 | 38 ft | 25 kts | 328° |
| 2026-05-06 09:20 | 39.55366 | 2.73700 | 38 ft | 26 kts | 328° |
| 2026-05-06 09:21 | 39.55523 | 2.73577 | 38 ft | 25 kts | 328° |
| 2026-05-06 09:21 | 39.55654 | 2.73522 | 38 ft | 20 kts | 26° |
| 2026-05-06 09:21 | 39.55743 | 2.73687 | 38 ft | 25 kts | 59° |
| 2026-05-06 09:21 | 39.55834 | 2.73879 | 38 ft | 25 kts | 58° |
| 2026-05-06 09:22 | 39.55926 | 2.74074 | 38 ft | 26 kts | 58° |
| 2026-05-06 09:22 | 39.56033 | 2.74262 | 38 ft | 26 kts | 35° |
| 2026-05-06 09:22 | 39.56198 | 2.74337 | 38 ft | 25 kts | 337° |
| 2026-05-06 09:22 | 39.56176 | 2.74157 | 38 ft | 24 kts | 239° |
| 2026-05-06 09:23 | 39.56072 | 2.73935 | 38 ft | 45 kts | 239° |
| 2026-05-06 09:23 | 39.55774 | 2.73307 | 38 ft | 115 kts | 238° |
| 2026-05-06 09:23 | 39.55258 | 2.72215 | 41 ft | 167 kts | 238° |
| 2026-05-06 09:23 | 39.54620 | 2.70879 | 539 ft | 175 kts | 238° |
| 2026-05-06 09:24 | 39.53980 | 2.69541 | 1304 ft | 175 kts | 237° |
| 2026-05-06 09:24 | 39.53313 | 2.68129 | 1752 ft | 194 kts | 237° |
| 2026-05-06 09:24 | 39.52571 | 2.66552 | 2054 ft | 216 kts | 238° |
| 2026-05-06 09:24 | 39.51772 | 2.64856 | 2575 ft | 223 kts | 239° |
| 2026-05-06 09:25 | 39.50956 | 2.63129 | 3347 ft | 225 kts | 238° |
| 2026-05-06 09:25 | 39.50126 | 2.61412 | 4146 ft | 226 kts | 234° |
| 2026-05-06 09:25 | 39.48969 | 2.59915 | 4612 ft | 248 kts | 214° |
| 2026-05-06 09:25 | 39.47355 | 2.58890 | 5142 ft | 266 kts | 204° |
| 2026-05-06 09:26 | 39.45643 | 2.57940 | 6004 ft | 270 kts | 204° |
| 2026-05-06 09:26 | 39.43829 | 2.57295 | 6859 ft | 275 kts | 184° |
| 2026-05-06 09:26 | 39.41932 | 2.57664 | 7707 ft | 281 kts | 159° |
| 2026-05-06 09:26 | 39.40313 | 2.59101 | 8536 ft | 289 kts | 133° |
| 2026-05-06 09:27 | 39.39333 | 2.61394 | 9351 ft | 298 kts | 105° |
| 2026-05-06 09:27 | 39.39212 | 2.64050 | 10102 ft | 304 kts | 86° |
| 2026-05-06 09:27 | 39.39378 | 2.66876 | 10439 ft | 326 kts | 86° |
| 2026-05-06 09:27 | 39.39570 | 2.69908 | 10672 ft | 350 kts | 86° |
| 2026-05-06 09:28 | 39.39772 | 2.73110 | 11168 ft | 361 kts | 86° |
| 2026-05-06 09:28 | 39.39973 | 2.76374 | 11840 ft | 368 kts | 86° |
| 2026-05-06 09:28 | 39.40172 | 2.79692 | 12533 ft | 373 kts | 87° |
| 2026-05-06 09:28 | 39.40368 | 2.83061 | 13218 ft | 378 kts | 87° |
| 2026-05-06 09:29 | 39.40564 | 2.86479 | 13869 ft | 384 kts | 87° |
| 2026-05-06 09:29 | 39.40762 | 2.89936 | 14473 ft | 388 kts | 87° |
| 2026-05-06 09:29 | 39.40961 | 2.93428 | 15121 ft | 391 kts | 88° |
| 2026-05-06 09:29 | 39.41160 | 2.96914 | 15756 ft | 394 kts | 88° |
| 2026-05-06 09:30 | 39.41360 | 3.00463 | 16387 ft | 398 kts | 88° |
| 2026-05-06 09:30 | 39.41556 | 3.04047 | 17002 ft | 401 kts | 88° |
| 2026-05-06 09:30 | 39.41752 | 3.07669 | 17608 ft | 405 kts | 88° |
| 2026-05-06 09:30 | 39.41950 | 3.11315 | 18210 ft | 408 kts | 88° |
| 2026-05-06 09:31 | 39.42152 | 3.14994 | 18733 ft | 412 kts | 88° |
| 2026-05-06 09:31 | 39.42355 | 3.18703 | 19245 ft | 415 kts | 88° |
| 2026-05-06 09:31 | 39.42628 | 3.22437 | 19731 ft | 420 kts | 82° |
| 2026-05-06 09:31 | 39.43351 | 3.26119 | 20204 ft | 426 kts | 71° |
| 2026-05-06 09:32 | 39.44573 | 3.29626 | 20668 ft | 431 kts | 60° |
| 2026-05-06 09:32 | 39.46111 | 3.32976 | 21140 ft | 434 kts | 59° |
| 2026-05-06 09:32 | 39.47665 | 3.36345 | 21610 ft | 438 kts | 59° |
| 2026-05-06 09:32 | 39.49228 | 3.39745 | 22067 ft | 441 kts | 59° |
| 2026-05-06 09:33 | 39.50803 | 3.43179 | 22517 ft | 445 kts | 59° |
| 2026-05-06 09:33 | 39.52390 | 3.46640 | 22960 ft | 448 kts | 59° |
| 2026-05-06 09:33 | 39.53986 | 3.50129 | 23395 ft | 452 kts | 59° |
| 2026-05-06 09:33 | 39.55595 | 3.53652 | 23767 ft | 456 kts | 59° |
| 2026-05-06 09:34 | 39.57194 | 3.57156 | 24122 ft | 459 kts | 59° |
| 2026-05-06 09:34 | 39.58823 | 3.60726 | 24493 ft | 462 kts | 59° |
| 2026-05-06 09:34 | 39.60465 | 3.64324 | 24862 ft | 464 kts | 59° |
| 2026-05-06 09:34 | 39.62111 | 3.67936 | 25222 ft | 467 kts | 59° |
| 2026-05-06 09:35 | 39.63768 | 3.71578 | 25579 ft | 469 kts | 60° |
| 2026-05-06 09:35 | 39.65433 | 3.75238 | 25928 ft | 472 kts | 60° |
| 2026-05-06 09:35 | 39.67106 | 3.78918 | 26277 ft | 475 kts | 60° |
| 2026-05-06 09:35 | 39.68788 | 3.82621 | 26625 ft | 477 kts | 60° |
| 2026-05-06 09:36 | 39.70475 | 3.86336 | 26978 ft | 479 kts | 60° |
| 2026-05-06 09:36 | 39.72173 | 3.90079 | 27328 ft | 481 kts | 60° |
| 2026-05-06 09:36 | 39.73873 | 3.93838 | 27672 ft | 484 kts | 60° |
| 2026-05-06 09:36 | 39.75578 | 3.97622 | 27994 ft | 487 kts | 60° |
| 2026-05-06 09:37 | 39.77293 | 4.01433 | 28301 ft | 490 kts | 60° |
| 2026-05-06 09:37 | 39.79018 | 4.05267 | 28612 ft | 492 kts | 60° |
| 2026-05-06 09:37 | 39.80752 | 4.09123 | 28918 ft | 495 kts | 60° |
| 2026-05-06 09:37 | 39.82571 | 4.12868 | 29207 ft | 497 kts | 53° |
| 2026-05-06 09:38 | 39.84835 | 4.16279 | 29485 ft | 499 kts | 43° |
| 2026-05-06 09:38 | 39.87498 | 4.19181 | 29762 ft | 500 kts | 33° |
| 2026-05-06 09:38 | 39.90484 | 4.21492 | 30019 ft | 500 kts | 23° |
| 2026-05-06 09:38 | 39.93705 | 4.23158 | 30246 ft | 498 kts | 13° |
| 2026-05-06 09:39 | 39.97071 | 4.24154 | 30513 ft | 496 kts | 6° |
| 2026-05-06 09:39 | 40.00470 | 4.24943 | 30764 ft | 497 kts | 6° |
| 2026-05-06 09:39 | 40.03873 | 4.25740 | 31117 ft | 496 kts | 6° |
| 2026-05-06 09:39 | 40.07269 | 4.26544 | 31480 ft | 495 kts | 6° |
| 2026-05-06 09:40 | 40.10651 | 4.27348 | 31844 ft | 493 kts | 6° |
| 2026-05-06 09:40 | 40.14022 | 4.28151 | 32215 ft | 492 kts | 6° |
| 2026-05-06 09:40 | 40.20737 | 4.29742 | 32950 ft | 489 kts | 5° |
| 2026-05-06 09:41 | 40.24091 | 4.30531 | 33296 ft | 488 kts | 5° |
| 2026-05-06 09:41 | 40.27399 | 4.31308 | 33652 ft | 487 kts | 5° |
| 2026-05-06 09:41 | 40.30732 | 4.32093 | 34010 ft | 486 kts | 5° |
| 2026-05-06 09:41 | 40.34057 | 4.32878 | 34316 ft | 485 kts | 5° |
| 2026-05-06 09:42 | 40.37376 | 4.33669 | 34613 ft | 484 kts | 5° |
| 2026-05-06 09:42 | 40.40688 | 4.34461 | 34916 ft | 484 kts | 5° |
| 2026-05-06 09:42 | 40.44015 | 4.35253 | 35114 ft | 485 kts | 5° |
| 2026-05-06 09:42 | 40.47340 | 4.36041 | 35332 ft | 486 kts | 5° |
| 2026-05-06 09:43 | 40.50668 | 4.36828 | 35579 ft | 486 kts | 5° |
| 2026-05-06 09:43 | 40.53990 | 4.37616 | 35825 ft | 485 kts | 5° |
| 2026-05-06 09:43 | 40.57315 | 4.38410 | 35962 ft | 486 kts | 5° |
| 2026-05-06 09:43 | 40.60637 | 4.39206 | 35988 ft | 485 kts | 5° |
| 2026-05-06 09:44 | 40.67277 | 4.40801 | 35986 ft | 485 kts | 5° |
| 2026-05-06 09:44 | 40.73908 | 4.42403 | 35986 ft | 485 kts | 5° |
| 2026-05-06 09:45 | 40.80543 | 4.43995 | 35986 ft | 484 kts | 5° |
| 2026-05-06 09:45 | 40.87179 | 4.45593 | 35983 ft | 485 kts | 5° |
| 2026-05-06 09:46 | 40.93824 | 4.47185 | 35983 ft | 485 kts | 5° |
| 2026-05-06 09:46 | 41.00429 | 4.48782 | 35982 ft | 486 kts | 5° |
| 2026-05-06 09:47 | 41.07091 | 4.50409 | 36010 ft | 486 kts | 5° |
| 2026-05-06 09:47 | 41.13753 | 4.52033 | 35994 ft | 487 kts | 5° |
| 2026-05-06 09:48 | 41.20415 | 4.53653 | 35981 ft | 487 kts | 5° |
| 2026-05-06 09:48 | 41.27091 | 4.55280 | 35996 ft | 487 kts | 5° |
| 2026-05-06 09:49 | 41.33765 | 4.56921 | 35996 ft | 488 kts | 5° |
| 2026-05-06 09:49 | 41.40439 | 4.58575 | 35973 ft | 488 kts | 5° |
| 2026-05-06 09:50 | 41.47073 | 4.60358 | 36000 ft | 494 kts | 14° |
| 2026-05-06 09:50 | 41.53390 | 4.64160 | 35986 ft | 499 kts | 22° |
| 2026-05-06 09:51 | 41.59649 | 4.68209 | 35981 ft | 500 kts | 22° |
| 2026-05-06 09:51 | 41.65912 | 4.72273 | 35979 ft | 501 kts | 22° |
| 2026-05-06 09:52 | 41.71125 | 4.75648 | 36000 ft | 501 kts | 22° |
| 2026-05-06 09:52 | 41.77433 | 4.79623 | 35988 ft | 501 kts | 21° |
| 2026-05-06 09:53 | 41.83768 | 4.83530 | 35978 ft | 501 kts | 21° |
| 2026-05-06 09:53 | 41.90099 | 4.87462 | 36001 ft | 502 kts | 21° |
| 2026-05-06 09:54 | 41.96427 | 4.91426 | 35993 ft | 502 kts | 21° |
| 2026-05-06 09:54 | 42.02755 | 4.95409 | 35962 ft | 502 kts | 21° |
| 2026-05-06 09:55 | 42.09081 | 4.99402 | 35996 ft | 503 kts | 21° |
| 2026-05-06 09:55 | 42.15416 | 5.03402 | 35978 ft | 503 kts | 21° |
| 2026-05-06 09:56 | 42.21763 | 5.07407 | 35969 ft | 504 kts | 21° |
| 2026-05-06 09:56 | 42.28110 | 5.11427 | 35969 ft | 504 kts | 21° |
| 2026-05-06 09:57 | 42.34454 | 5.15461 | 35985 ft | 504 kts | 21° |
| 2026-05-06 09:57 | 42.40798 | 5.19507 | 35980 ft | 504 kts | 21° |
| 2026-05-06 09:58 | 42.47134 | 5.23555 | 35978 ft | 504 kts | 21° |
| 2026-05-06 09:58 | 42.53470 | 5.27603 | 35996 ft | 503 kts | 22° |
| 2026-05-06 09:59 | 42.59759 | 5.31641 | 35982 ft | 503 kts | 22° |
| 2026-05-06 09:59 | 42.66077 | 5.35709 | 35943 ft | 503 kts | 22° |
| 2026-05-06 10:00 | 42.72407 | 5.39782 | 35944 ft | 503 kts | 22° |
| 2026-05-06 10:00 | 42.78746 | 5.43863 | 35940 ft | 504 kts | 22° |
| 2026-05-06 10:01 | 42.85084 | 5.47970 | 35943 ft | 504 kts | 22° |
| 2026-05-06 10:01 | 42.91419 | 5.52080 | 35968 ft | 504 kts | 22° |
| 2026-05-06 10:02 | 42.97758 | 5.56194 | 35968 ft | 504 kts | 22° |
| 2026-05-06 10:02 | 43.04081 | 5.60313 | 35961 ft | 504 kts | 22° |
| 2026-05-06 10:03 | 43.10400 | 5.64447 | 35973 ft | 503 kts | 22° |
| 2026-05-06 10:03 | 43.16924 | 5.67721 | 35960 ft | 498 kts | 13° |
| 2026-05-06 10:04 | 43.23486 | 5.70595 | 35947 ft | 498 kts | 13° |
| 2026-05-06 10:04 | 43.30096 | 5.73493 | 35943 ft | 499 kts | 14° |
| 2026-05-06 10:05 | 43.36713 | 5.76403 | 35932 ft | 499 kts | 14° |
| 2026-05-06 10:05 | 43.43323 | 5.79327 | 35932 ft | 499 kts | 14° |
| 2026-05-06 10:06 | 43.49943 | 5.82257 | 35948 ft | 499 kts | 14° |
| 2026-05-06 10:06 | 43.56507 | 5.85216 | 35938 ft | 499 kts | 14° |
| 2026-05-06 10:07 | 43.63114 | 5.88236 | 35934 ft | 499 kts | 14° |
| 2026-05-06 10:07 | 43.69725 | 5.91259 | 35945 ft | 499 kts | 14° |
| 2026-05-06 10:08 | 43.76335 | 5.94268 | 35930 ft | 499 kts | 14° |
| 2026-05-06 10:08 | 43.82934 | 5.97265 | 35928 ft | 499 kts | 14° |
| 2026-05-06 10:09 | 43.89526 | 6.00277 | 35946 ft | 499 kts | 15° |
| 2026-05-06 10:09 | 43.96067 | 6.03284 | 35934 ft | 499 kts | 15° |
| 2026-05-06 10:10 | 44.02662 | 6.06316 | 35926 ft | 499 kts | 15° |
| 2026-05-06 10:10 | 44.09252 | 6.09344 | 35917 ft | 499 kts | 15° |
| 2026-05-06 10:11 | 44.15839 | 6.12383 | 35900 ft | 499 kts | 15° |
| 2026-05-06 10:11 | 44.22440 | 6.15444 | 35897 ft | 500 kts | 15° |
| 2026-05-06 10:12 | 44.29044 | 6.18515 | 35906 ft | 500 kts | 15° |
| 2026-05-06 10:12 | 44.35652 | 6.21588 | 35907 ft | 500 kts | 15° |
| 2026-05-06 10:13 | 44.42261 | 6.24664 | 35909 ft | 500 kts | 15° |
| 2026-05-06 10:13 | 44.48866 | 6.27737 | 35939 ft | 500 kts | 15° |
| 2026-05-06 10:14 | 44.55461 | 6.30828 | 35922 ft | 500 kts | 16° |
| 2026-05-06 10:14 | 44.62054 | 6.33941 | 35918 ft | 499 kts | 16° |
| 2026-05-06 10:15 | 44.68649 | 6.37022 | 35909 ft | 499 kts | 15° |
| 2026-05-06 10:15 | 44.75243 | 6.40095 | 35903 ft | 499 kts | 15° |
| 2026-05-06 10:16 | 44.81783 | 6.43180 | 35913 ft | 499 kts | 16° |
| 2026-05-06 10:16 | 44.88367 | 6.46299 | 35914 ft | 499 kts | 16° |
| 2026-05-06 10:17 | 44.94948 | 6.49438 | 35907 ft | 499 kts | 16° |
| 2026-05-06 10:17 | 45.01522 | 6.52565 | 35887 ft | 499 kts | 16° |
| 2026-05-06 10:18 | 45.08106 | 6.55708 | 35876 ft | 500 kts | 16° |
| 2026-05-06 10:18 | 45.14692 | 6.58867 | 35871 ft | 500 kts | 16° |
| 2026-05-06 10:19 | 45.21254 | 6.62021 | 35898 ft | 501 kts | 17° |
| 2026-05-06 10:19 | 45.27866 | 6.65193 | 35883 ft | 501 kts | 17° |
| 2026-05-06 10:20 | 45.34465 | 6.68377 | 35885 ft | 501 kts | 17° |
| 2026-05-06 10:20 | 45.41007 | 6.71841 | 35889 ft | 502 kts | 20° |
| 2026-05-06 10:21 | 45.47315 | 6.75942 | 35892 ft | 503 kts | 31° |
| 2026-05-06 10:21 | 45.53306 | 6.81088 | 35897 ft | 503 kts | 30° |
| 2026-05-06 10:22 | 45.59361 | 6.86078 | 35902 ft | 502 kts | 29° |
| 2026-05-06 10:22 | 45.65424 | 6.91044 | 35891 ft | 502 kts | 29° |
| 2026-05-06 10:23 | 45.71460 | 6.96052 | 35883 ft | 501 kts | 30° |
| 2026-05-06 10:23 | 45.77477 | 7.01095 | 35902 ft | 501 kts | 30° |
| 2026-05-06 10:24 | 45.83491 | 7.06153 | 35891 ft | 501 kts | 30° |
| 2026-05-06 10:24 | 45.89506 | 7.11213 | 35848 ft | 501 kts | 30° |
| 2026-05-06 10:25 | 45.95518 | 7.16284 | 35852 ft | 501 kts | 30° |
| 2026-05-06 10:25 | 46.01541 | 7.21377 | 35866 ft | 503 kts | 30° |
| 2026-05-06 10:26 | 46.07571 | 7.26487 | 35868 ft | 503 kts | 30° |
| 2026-05-06 10:26 | 46.13609 | 7.31615 | 35882 ft | 503 kts | 30° |
| 2026-05-06 10:27 | 46.19596 | 7.36728 | 35891 ft | 503 kts | 30° |
| 2026-05-06 10:27 | 46.25618 | 7.41882 | 35897 ft | 503 kts | 30° |
| 2026-05-06 10:28 | 46.31645 | 7.47044 | 35892 ft | 503 kts | 30° |
| 2026-05-06 10:28 | 46.37656 | 7.52205 | 35884 ft | 502 kts | 30° |
| 2026-05-06 10:29 | 46.43662 | 7.57364 | 35881 ft | 501 kts | 30° |
| 2026-05-06 10:29 | 46.49655 | 7.62541 | 35873 ft | 501 kts | 30° |
| 2026-05-06 10:30 | 46.55644 | 7.67740 | 35867 ft | 501 kts | 31° |
| 2026-05-06 10:30 | 46.61648 | 7.72891 | 35866 ft | 501 kts | 28° |
| 2026-05-06 10:31 | 46.67803 | 7.77641 | 35860 ft | 500 kts | 26° |
| 2026-05-06 10:31 | 46.74021 | 7.82229 | 35864 ft | 500 kts | 26° |
| 2026-05-06 10:32 | 46.80201 | 7.86896 | 35862 ft | 500 kts | 27° |
| 2026-05-06 10:32 | 46.86344 | 7.91656 | 35865 ft | 501 kts | 27° |
| 2026-05-06 10:33 | 46.92490 | 7.96460 | 35874 ft | 500 kts | 27° |
| 2026-05-06 10:33 | 46.98629 | 8.01241 | 35850 ft | 499 kts | 27° |
| 2026-05-06 10:34 | 47.04774 | 8.06009 | 35846 ft | 499 kts | 27° |
| 2026-05-06 10:34 | 47.10874 | 8.10764 | 35857 ft | 499 kts | 27° |
| 2026-05-06 10:35 | 47.17006 | 8.15564 | 35857 ft | 499 kts | 27° |
| 2026-05-06 10:35 | 47.23134 | 8.20363 | 35858 ft | 499 kts | 27° |
| 2026-05-06 10:36 | 47.29263 | 8.25179 | 35848 ft | 499 kts | 28° |
| 2026-05-06 10:36 | 47.35377 | 8.30012 | 35857 ft | 499 kts | 28° |
| 2026-05-06 10:37 | 47.41492 | 8.34850 | 35827 ft | 498 kts | 27° |
| 2026-05-06 10:37 | 47.47597 | 8.39686 | 35833 ft | 498 kts | 27° |
| 2026-05-06 10:38 | 47.53700 | 8.44539 | 35837 ft | 498 kts | 27° |
| 2026-05-06 10:38 | 47.59805 | 8.49389 | 35839 ft | 498 kts | 27° |
| 2026-05-06 10:39 | 47.65906 | 8.54258 | 35838 ft | 498 kts | 28° |
| 2026-05-06 10:39 | 47.71998 | 8.59146 | 35846 ft | 498 kts | 28° |
| 2026-05-06 10:40 | 47.77065 | 8.63215 | 35834 ft | 498 kts | 28° |
| 2026-05-06 10:40 | 47.84151 | 8.68918 | 35827 ft | 498 kts | 28° |
| 2026-05-06 10:41 | 47.90238 | 8.73845 | 35824 ft | 498 kts | 28° |
| 2026-05-06 10:41 | 47.95338 | 8.77975 | 35643 ft | 498 kts | 28° |
| 2026-05-06 10:42 | 47.98380 | 8.80439 | 35394 ft | 498 kts | 28° |
| 2026-05-06 10:42 | 48.01426 | 8.82913 | 35151 ft | 499 kts | 28° |
| 2026-05-06 10:42 | 48.04441 | 8.85364 | 34917 ft | 499 kts | 28° |
| 2026-05-06 10:42 | 48.07493 | 8.87849 | 34672 ft | 501 kts | 28° |
| 2026-05-06 10:43 | 48.10558 | 8.90348 | 34434 ft | 501 kts | 28° |
| 2026-05-06 10:43 | 48.13632 | 8.92789 | 34199 ft | 500 kts | 24° |
| 2026-05-06 10:43 | 48.16868 | 8.94669 | 33964 ft | 498 kts | 14° |
| 2026-05-06 10:44 | 48.23666 | 8.96390 | 33442 ft | 495 kts | 2° |
| 2026-05-06 10:44 | 48.27093 | 8.96914 | 33176 ft | 495 kts | 2° |
| 2026-05-06 10:44 | 48.30519 | 8.97441 | 32900 ft | 495 kts | 3° |
| 2026-05-06 10:44 | 48.33940 | 8.97966 | 32629 ft | 494 kts | 3° |
| 2026-05-06 10:45 | 48.37357 | 8.98490 | 32255 ft | 493 kts | 3° |
| 2026-05-06 10:45 | 48.40790 | 8.99013 | 31215 ft | 498 kts | 4° |
| 2026-05-06 10:45 | 48.44201 | 8.99532 | 30778 ft | 489 kts | 4° |
| 2026-05-06 10:45 | 48.47573 | 9.00047 | 30131 ft | 485 kts | 4° |
| 2026-05-06 10:46 | 48.50917 | 9.00558 | 29472 ft | 481 kts | 5° |
| 2026-05-06 10:46 | 48.54226 | 9.01066 | 28873 ft | 474 kts | 5° |
| 2026-05-06 10:46 | 48.57486 | 9.01569 | 28270 ft | 469 kts | 5° |
| 2026-05-06 10:46 | 48.60715 | 9.02066 | 27680 ft | 464 kts | 5° |
| 2026-05-06 10:47 | 48.63905 | 9.02576 | 27104 ft | 458 kts | 6° |
| 2026-05-06 10:47 | 48.67047 | 9.03206 | 26529 ft | 453 kts | 8° |
| 2026-05-06 10:47 | 48.70149 | 9.03939 | 25963 ft | 448 kts | 9° |
| 2026-05-06 10:47 | 48.73202 | 9.04722 | 25412 ft | 443 kts | 9° |
| 2026-05-06 10:48 | 48.76221 | 9.05507 | 24882 ft | 438 kts | 9° |
| 2026-05-06 10:48 | 48.79207 | 9.06269 | 24365 ft | 432 kts | 9° |
| 2026-05-06 10:48 | 48.82120 | 9.06993 | 23866 ft | 427 kts | 9° |
| 2026-05-06 10:48 | 48.85076 | 9.07713 | 23373 ft | 422 kts | 9° |
| 2026-05-06 10:49 | 48.87920 | 9.08394 | 22865 ft | 416 kts | 9° |
| 2026-05-06 10:49 | 48.90766 | 9.08980 | 22414 ft | 409 kts | 6° |
| 2026-05-06 10:49 | 48.93582 | 9.09420 | 21960 ft | 403 kts | 5° |
| 2026-05-06 10:49 | 48.96367 | 9.09771 | 21524 ft | 401 kts | 4° |
| 2026-05-06 10:50 | 48.99140 | 9.10091 | 21063 ft | 399 kts | 4° |
| 2026-05-06 10:50 | 49.01903 | 9.10424 | 20607 ft | 397 kts | 4° |
| 2026-05-06 10:50 | 49.04654 | 9.10781 | 20102 ft | 395 kts | 4° |
| 2026-05-06 10:50 | 49.07387 | 9.11155 | 19610 ft | 393 kts | 5° |
| 2026-05-06 10:51 | 49.10100 | 9.11538 | 19121 ft | 391 kts | 5° |
| 2026-05-06 10:51 | 49.12806 | 9.11927 | 18634 ft | 389 kts | 5° |
| 2026-05-06 10:51 | 49.15502 | 9.12321 | 18148 ft | 388 kts | 5° |
| 2026-05-06 10:51 | 49.18182 | 9.12714 | 17643 ft | 386 kts | 5° |
| 2026-05-06 10:52 | 49.20829 | 9.13099 | 17222 ft | 381 kts | 5° |
| 2026-05-06 10:52 | 49.23468 | 9.13480 | 16783 ft | 378 kts | 5° |
| 2026-05-06 10:52 | 49.26076 | 9.13856 | 16225 ft | 378 kts | 5° |
| 2026-05-06 10:52 | 49.28665 | 9.14306 | 15903 ft | 372 kts | 9° |
| 2026-05-06 10:53 | 49.31210 | 9.15146 | 15277 ft | 375 kts | 12° |
| 2026-05-06 10:53 | 49.33717 | 9.16032 | 15024 ft | 366 kts | 12° |
| 2026-05-06 10:53 | 49.36225 | 9.16934 | 14189 ft | 376 kts | 12° |
| 2026-05-06 10:53 | 49.38777 | 9.17858 | 13676 ft | 376 kts | 12° |
| 2026-05-06 10:54 | 49.41323 | 9.18773 | 13115 ft | 375 kts | 12° |
| 2026-05-06 10:54 | 49.43845 | 9.19670 | 12766 ft | 368 kts | 12° |
| 2026-05-06 10:54 | 49.46319 | 9.20545 | 12325 ft | 363 kts | 12° |
| 2026-05-06 10:54 | 49.48775 | 9.21412 | 11821 ft | 361 kts | 12° |
| 2026-05-06 10:55 | 49.51210 | 9.22278 | 11339 ft | 358 kts | 12° |
| 2026-05-06 10:55 | 49.53604 | 9.23132 | 10881 ft | 355 kts | 12° |
| 2026-05-06 10:55 | 49.55973 | 9.23981 | 10783 ft | 347 kts | 12° |
| 2026-05-06 10:55 | 49.58317 | 9.24820 | 10693 ft | 345 kts | 12° |
| 2026-05-06 10:56 | 49.60652 | 9.25654 | 10560 ft | 344 kts | 12° |
| 2026-05-06 10:56 | 49.62980 | 9.26486 | 10421 ft | 342 kts | 12° |
| 2026-05-06 10:56 | 49.65250 | 9.27300 | 10292 ft | 329 kts | 12° |
| 2026-05-06 10:56 | 49.67441 | 9.28085 | 10173 ft | 317 kts | 11° |
| 2026-05-06 10:57 | 49.69568 | 9.28845 | 9959 ft | 310 kts | 12° |
| 2026-05-06 10:57 | 49.71651 | 9.29594 | 9798 ft | 306 kts | 11° |
| 2026-05-06 10:57 | 49.73725 | 9.30339 | 9622 ft | 306 kts | 11° |
| 2026-05-06 10:57 | 49.75791 | 9.31081 | 9400 ft | 304 kts | 11° |
| 2026-05-06 10:58 | 49.77848 | 9.31822 | 9189 ft | 304 kts | 12° |
| 2026-05-06 10:58 | 49.79901 | 9.32566 | 8976 ft | 301 kts | 12° |
| 2026-05-06 10:58 | 49.81936 | 9.33303 | 8780 ft | 300 kts | 11° |
| 2026-05-06 10:58 | 49.83980 | 9.33909 | 8564 ft | 297 kts | 2° |
| 2026-05-06 10:59 | 49.86020 | 9.33738 | 8357 ft | 292 kts | 345° |
| 2026-05-06 10:59 | 49.87923 | 9.32738 | 8151 ft | 287 kts | 330° |
| 2026-05-06 10:59 | 49.89562 | 9.31086 | 7956 ft | 284 kts | 320° |
| 2026-05-06 10:59 | 49.91152 | 9.29263 | 7761 ft | 283 kts | 320° |
| 2026-05-06 11:00 | 49.92738 | 9.27452 | 7554 ft | 282 kts | 320° |
| 2026-05-06 11:00 | 49.94319 | 9.25652 | 7364 ft | 281 kts | 320° |
| 2026-05-06 11:00 | 49.95896 | 9.23859 | 7168 ft | 279 kts | 321° |
| 2026-05-06 11:00 | 49.97445 | 9.22130 | 7020 ft | 269 kts | 324° |
| 2026-05-06 11:01 | 49.99123 | 9.20947 | 6896 ft | 262 kts | 341° |
| 2026-05-06 11:01 | 50.00855 | 9.20251 | 6744 ft | 254 kts | 343° |
| 2026-05-06 11:01 | 50.02559 | 9.19636 | 6492 ft | 250 kts | 344° |
| 2026-05-06 11:01 | 50.04248 | 9.19028 | 6216 ft | 248 kts | 344° |
| 2026-05-06 11:02 | 50.05923 | 9.18421 | 5895 ft | 246 kts | 344° |
| 2026-05-06 11:02 | 50.07591 | 9.17825 | 5570 ft | 246 kts | 343° |
| 2026-05-06 11:02 | 50.09260 | 9.17251 | 5251 ft | 245 kts | 344° |
| 2026-05-06 11:02 | 50.10924 | 9.16677 | 4944 ft | 244 kts | 345° |
| 2026-05-06 11:03 | 50.12528 | 9.16110 | 4811 ft | 234 kts | 344° |
| 2026-05-06 11:03 | 50.14079 | 9.15434 | 4537 ft | 228 kts | 329° |
| 2026-05-06 11:03 | 50.15239 | 9.13880 | 4316 ft | 215 kts | 301° |
| 2026-05-06 11:03 | 50.15849 | 9.11862 | 4192 ft | 200 kts | 279° |
| 2026-05-06 11:04 | 50.15934 | 9.09783 | 4096 ft | 185 kts | 259° |
| 2026-05-06 11:04 | 50.15607 | 9.07941 | 4014 ft | 169 kts | 248° |
| 2026-05-06 11:04 | 50.15223 | 9.06288 | 3990 ft | 157 kts | 248° |
| 2026-05-06 11:04 | 50.14851 | 9.04690 | 3994 ft | 157 kts | 248° |
| 2026-05-06 11:05 | 50.14477 | 9.03089 | 3997 ft | 158 kts | 248° |
| 2026-05-06 11:05 | 50.14104 | 9.01487 | 3997 ft | 156 kts | 248° |
| 2026-05-06 11:05 | 50.13731 | 8.99891 | 3995 ft | 157 kts | 247° |
| 2026-05-06 11:05 | 50.13359 | 8.98303 | 3997 ft | 159 kts | 248° |
| 2026-05-06 11:06 | 50.12983 | 8.96691 | 3999 ft | 158 kts | 248° |
| 2026-05-06 11:06 | 50.12608 | 8.95090 | 4001 ft | 157 kts | 247° |
| 2026-05-06 11:06 | 50.12234 | 8.93494 | 3998 ft | 157 kts | 248° |
| 2026-05-06 11:06 | 50.11859 | 8.91894 | 3999 ft | 157 kts | 248° |
| 2026-05-06 11:07 | 50.11483 | 8.90291 | 3999 ft | 158 kts | 248° |
| 2026-05-06 11:07 | 50.11105 | 8.88683 | 4000 ft | 158 kts | 248° |
| 2026-05-06 11:07 | 50.10726 | 8.87070 | 4002 ft | 159 kts | 247° |
| 2026-05-06 11:07 | 50.10299 | 8.85266 | 3892 ft | 187 kts | 248° |
| 2026-05-06 11:08 | 50.09871 | 8.83438 | 3681 ft | 173 kts | 248° |
| 2026-05-06 11:08 | 50.09479 | 8.81767 | 3487 ft | 159 kts | 247° |
| 2026-05-06 11:08 | 50.09118 | 8.80233 | 3292 ft | 144 kts | 247° |
| 2026-05-06 11:08 | 50.08780 | 8.78803 | 3088 ft | 139 kts | 247° |
| 2026-05-06 11:09 | 50.08450 | 8.77411 | 2910 ft | 136 kts | 247° |
| 2026-05-06 11:09 | 50.08126 | 8.76039 | 2721 ft | 133 kts | 247° |
| 2026-05-06 11:09 | 50.07809 | 8.74696 | 2542 ft | 133 kts | 248° |
| 2026-05-06 11:09 | 50.07491 | 8.73350 | 2374 ft | 132 kts | 247° |
| 2026-05-06 11:10 | 50.07173 | 8.72007 | 2187 ft | 132 kts | 247° |
| 2026-05-06 11:10 | 50.06856 | 8.70666 | 2018 ft | 131 kts | 248° |
| 2026-05-06 11:10 | 50.06538 | 8.69326 | 1843 ft | 132 kts | 248° |
| 2026-05-06 11:10 | 50.06221 | 8.67987 | 1663 ft | 132 kts | 248° |
| 2026-05-06 11:11 | 50.05906 | 8.66659 | 1486 ft | 130 kts | 248° |
| 2026-05-06 11:11 | 50.05592 | 8.65338 | 1307 ft | 131 kts | 249° |
| 2026-05-06 11:11 | 50.05274 | 8.63998 | 1120 ft | 131 kts | 248° |
| 2026-05-06 11:11 | 50.04959 | 8.62673 | 951 ft | 129 kts | 248° |
| 2026-05-06 11:12 | 50.04644 | 8.61350 | 784 ft | 130 kts | 249° |
| 2026-05-06 11:12 | 50.04339 | 8.60036 | 605 ft | 128 kts | 248° |
| 2026-05-06 11:12 | 50.04024 | 8.58737 | 413 ft | 129 kts | 248° |
| 2026-05-06 11:12 | 50.03726 | 8.57494 | 359 ft | 109 kts | 248° |
| 2026-05-06 11:13 | 50.03527 | 8.56651 | 354 ft | 60 kts | 250° |
| 2026-05-06 11:13 | 50.03433 | 8.56206 | 359 ft | 35 kts | 264° |
| 2026-05-06 11:13 | 50.03456 | 8.55875 | 345 ft | 25 kts | 280° |
| 2026-05-06 11:13 | 50.03525 | 8.55716 | 348 ft | 16 kts | 14° |
| 2026-05-06 11:14 | 50.03587 | 8.55862 | 354 ft | 22 kts | 69° |
| 2026-05-06 11:14 | 50.03644 | 8.56110 | 357 ft | 24 kts | 69° |
| 2026-05-06 11:14 | 50.03700 | 8.56341 | 357 ft | 22 kts | 70° |
| 2026-05-06 11:14 | 50.03751 | 8.56553 | 355 ft | 20 kts | 70° |
| 2026-05-06 11:15 | 50.03801 | 8.56768 | 359 ft | 25 kts | 70° |
| 2026-05-06 11:15 | 50.03869 | 8.57049 | 362 ft | 27 kts | 70° |
| 2026-05-06 11:15 | 50.03930 | 8.57308 | 366 ft | 23 kts | 70° |
| 2026-05-06 11:15 | 50.03984 | 8.57533 | 369 ft | 24 kts | 69° |
| 2026-05-06 11:16 | 50.04049 | 8.57804 | 368 ft | 27 kts | 70° |
| 2026-05-06 11:16 | 50.04109 | 8.58062 | 371 ft | 21 kts | 69° |
| 2026-05-06 11:16 | 50.04213 | 8.58194 | 368 ft | 19 kts | 16° |
| 2026-05-06 11:16 | 50.04354 | 8.58165 | 368 ft | 24 kts | 340° |
| 2026-05-06 11:17 | 50.04514 | 8.58075 | 365 ft | 22 kts | 350° |
| 2026-05-06 11:17 | 50.04595 | 8.58232 | 368 ft | 18 kts | 70° |
| 2026-05-06 11:17 | 50.04633 | 8.58399 | 371 ft | 15 kts | 71° |
| 2026-05-06 11:17 | 50.04672 | 8.58559 | 369 ft | 20 kts | 69° |
| 2026-05-06 11:18 | 50.04723 | 8.58756 | 370 ft | 19 kts | 68° |
| 2026-05-06 11:18 | 50.04782 | 8.58868 | 369 ft | 11 kts | 349° |
| 2026-05-06 11:18 | 50.04825 | 8.58840 | 368 ft | 3 kts | 340° |
| 2026-05-06 11:18 | 50.04830 | 8.58837 | 366 ft | 0 kts | 340° |